Soaring Guidance
Issued by NWS Reno, NV

Home | Current Version | Previous Version | Text Only | Print | Product List | Glossary On
Versions: 1 2 3 4 5 6 7 8
000
UXUS97 KREV 261337
SRGREV

SOARING FORECAST
NATIONAL WEATHER SERVICE - RENO NV
700 AM PDT MON JUN 26 2017

THIS SOARING FORECAST IS FOR THE EASTERN SIERRA AND WESTERN NEVADA
WITH SPECIFIC INDICES FOR THE GREATER RENO AREA.

THIS FORECAST IS PREPARED DAILY BY 700 AM AND IS NOT UPDATED.

FOR CURRENT FLIGHT CONDITIONS...FORECASTS...AND ADVISORIES...ACCESS
YOUR LOCAL BRIEFING OUTLET OR FLIGHT SERVICE STATION.

*******************************************************************
FORECASTED LOCAL INDICES FOR RENO:        TODAY     YESTERDAY
FORECASTED MAX TEMP AT RENO (DEG F).....     94         100
FORECASTED TRIGGER TEMPERATURE (DEG F)..     81          80
   EXCEEDED YESTERDAY BY 955 AM PDT
FORECASTED MAXIMUM ALTITUDE (FT MSL)....  17600       13900
FORECASTED SOARING INDEX (FPM)..........   1158         717
FORECASTED K-INDEX.........VALID 18Z....     14          12
FORECASTED K-INDEX.........VALID 00Z....     11          28
FORECASTED LIFTED INDEX....VALID 18Z....      1           2
FORECASTED LIFTED INDEX....VALID 00Z....      4          -2

AFTERNOON WINDS ALOFT FORECAST
MSL (FT) WIND/TEMP
9000  2520/+14
10000 2321/+11
12000 2224/+07
14000 2225/+01
16000 2226/-04
18000 2327/-09
24000 2441/-20
30000 2564/-35
34000 2569/-44
39000 2567/-52

SLIDE MOUNTAIN DATA:
     DATE       TIME     TEMP  DEWPT   RH         WIND (MPH)
                        (F)   (F)           | DIR  SPEED GUST
2017-06-26    05:20      51    43     66    | 150   17   23
2017-06-26    05:00      51    43     65    | 148   16   25
2017-06-26    04:50      51    42     61    | 150   16   24
2017-06-26    04:30      52    41     59    | 150   17   26

RENO TAF FORECAST:
KRNO 261120Z 2612/2712 VRB04KT P6SM SKC
     FM261900 25014G26KT P6SM SKC
     FM270400 29011KT P6SM SKC
     FM270700 VRB03KT P6SM SKC

CARSON CITY TAF FORECAST:
KCXP 261120Z 2612/2712 VRB03KT P6SM SKC
     FM261900 25012G24KT P6SM SKC
     FM270400 VRB04KT P6SM SKC

OUTLOOK FOR THE RENO-CARSON CITY-MINDEN AREA:
.TUESDAY...SUNNY. HIGHS 88 TO 93. LIGHT WINDS BECOMING SOUTHWEST
10 TO 15 MPH IN THE AFTERNOON.

SUNRISE AND SUNSET
JUNE 26 2017..........SUNRISE   534 AM PDT   SUNSET   830 PM PDT
JUNE 27 2017..........SUNRISE   534 AM PDT   SUNSET   830 PM PDT



USA.gov is the U.S. government's official web portal to all federal, state and local government web resources and services.